createdAt,value
2023-05-10T00:02:07.757Z,2.13
2023-05-10T00:07:09.408Z,2.15
2023-05-10T00:12:11.125Z,2.10
2023-05-10T00:17:12.753Z,1.83
2023-05-10T00:22:14.366Z,2.42
2023-05-10T00:27:15.973Z,1.95
2023-05-10T00:32:17.628Z,2.30
2023-05-10T00:37:19.306Z,2.10
2023-05-10T00:42:20.906Z,2.40
2023-05-10T00:47:23.726Z,2.20
2023-05-10T00:52:25.749Z,2.22
2023-05-10T00:57:27.832Z,2.30
2023-05-10T01:02:29.730Z,2.13
2023-05-10T01:07:32.283Z,2.70
2023-05-10T01:12:38.126Z,2.50
2023-05-10T01:17:43.460Z,2.40
2023-05-10T01:22:54.185Z,2.35
2023-05-10T01:28:31.135Z,2.20
2023-05-10T01:33:32.740Z,1.88
2023-05-10T01:38:40.443Z,2.05
2023-05-10T01:44:00.312Z,2.47
2023-05-10T01:49:05.082Z,2.17
2023-05-10T01:54:08.103Z,2.50
2023-05-10T01:59:16.246Z,2.20
2023-05-10T02:04:20.421Z,1.98
2023-05-10T02:09:24.227Z,2.92
2023-05-10T02:14:27.995Z,2.20
2023-05-10T02:19:30.698Z,2.28
2023-05-10T02:24:34.733Z,2.15
2023-05-10T02:29:37.528Z,2.55
2023-05-10T02:34:41.231Z,2.03
2023-05-10T02:39:46.516Z,2.63
2023-05-10T02:44:50.485Z,2.35
2023-05-10T02:49:52.313Z,2.25
2023-05-10T02:54:57.188Z,2.47
2023-05-10T02:59:59.437Z,2.08
2023-05-10T03:05:01.196Z,2.70
2023-05-10T03:10:04.265Z,2.72
2023-05-10T03:15:12.726Z,2.13
2023-05-10T03:20:25.676Z,2.38
2023-05-10T03:25:28.024Z,2.97
2023-05-10T03:30:30.720Z,2.33
2023-05-10T03:35:32.399Z,2.80
2023-05-10T03:40:34.147Z,2.65
2023-05-10T03:45:36.620Z,2.25
2023-05-10T03:50:38.338Z,2.80
2023-05-10T03:55:40.063Z,2.63
2023-05-10T04:00:44.826Z,2.60
2023-05-10T04:05:46.876Z,2.55
2023-05-10T04:10:48.700Z,2.22
2023-05-10T04:15:50.344Z,2.47
2023-05-10T04:20:51.942Z,2.42
2023-05-10T04:25:53.662Z,2.22
2023-05-10T04:31:02.627Z,3.53
2023-05-10T04:36:04.907Z,2.20
2023-05-10T04:41:11.102Z,2.13
2023-05-10T04:46:12.999Z,2.13
2023-05-10T04:51:14.696Z,2.17
2023-05-10T04:56:17.078Z,2.60
2023-05-10T05:01:18.793Z,1.73
2023-05-10T05:06:22.083Z,2.33
2023-05-10T05:11:23.963Z,2.13
2023-05-10T05:16:26.562Z,2.25
2023-05-10T05:21:28.265Z,2.03
2023-05-10T05:26:29.898Z,1.80
2023-05-10T05:31:31.787Z,1.90
2023-05-10T05:36:34.910Z,2.10
2023-05-10T05:41:37.578Z,2.67
2023-05-10T05:46:39.261Z,1.90
2023-05-10T05:51:40.867Z,2.22
2023-05-10T05:56:42.563Z,1.75
2023-05-10T06:01:44.206Z,2.25
2023-05-10T06:06:45.852Z,1.90
2023-05-10T06:11:47.804Z,1.83
2023-05-10T06:16:49.481Z,1.80
2023-05-10T06:21:53.159Z,1.88
2023-05-10T06:26:55.473Z,1.52
2023-05-10T06:31:57.143Z,1.38
2023-05-10T06:36:58.918Z,1.58
2023-05-10T06:42:00.703Z,1.60
2023-05-10T06:47:07.442Z,1.70
2023-05-10T06:52:09.073Z,1.73
2023-05-10T06:57:19.437Z,2.42
2023-05-10T07:02:32.017Z,2.20
2023-05-10T07:07:33.684Z,1.50
2023-05-10T07:12:35.313Z,1.58
2023-05-10T07:17:37.053Z,2.00
2023-05-10T07:22:38.788Z,1.75
2023-05-10T07:27:40.434Z,1.83
2023-05-10T07:32:42.961Z,1.52
2023-05-10T07:37:44.681Z,1.67
2023-05-10T07:42:46.321Z,1.88
2023-05-10T07:47:48.074Z,1.77
2023-05-10T07:52:49.768Z,1.63
2023-05-10T07:57:51.455Z,1.55
2023-05-10T08:02:53.200Z,1.48
2023-05-10T08:07:54.854Z,1.75
2023-05-10T08:12:56.505Z,2.28
2023-05-10T08:17:58.164Z,1.63
2023-05-10T08:22:59.842Z,1.70
2023-05-10T08:28:01.452Z,1.90
2023-05-10T08:33:03.131Z,2.15
2023-05-10T08:38:04.812Z,2.10
2023-05-10T08:43:08.625Z,1.70
2023-05-10T08:48:11.460Z,1.83
2023-05-10T08:53:14.529Z,2.20
2023-05-10T08:58:16.438Z,1.90
2023-05-10T09:03:18.938Z,2.20
2023-05-10T09:08:21.216Z,2.42
2023-05-10T09:13:24.438Z,1.80
2023-05-10T09:18:27.884Z,1.80
2023-05-10T09:23:33.310Z,1.92
2023-05-10T09:28:50.424Z,3.10
2023-05-10T09:33:52.929Z,1.88
2023-05-10T09:38:54.573Z,2.40
2023-05-10T09:43:57.452Z,2.45
2023-05-10T09:49:00.204Z,2.13
2023-05-10T09:54:13.947Z,1.92
2023-05-10T09:59:15.681Z,1.83
2023-05-10T10:04:18.004Z,2.50
2023-05-10T10:09:19.861Z,2.20
2023-05-10T10:14:22.968Z,2.00
2023-05-10T10:19:24.636Z,2.08
2023-05-10T10:24:26.246Z,2.40
2023-05-10T10:29:51.539Z,2.38
2023-05-10T10:34:54.856Z,2.08
2023-05-10T10:39:56.631Z,2.47
2023-05-10T10:45:18.782Z,2.15
2023-05-10T10:50:20.807Z,2.15
2023-05-10T10:55:24.656Z,2.47
2023-05-10T11:00:28.409Z,2.13
2023-05-10T11:05:29.995Z,2.50
2023-05-10T11:10:31.611Z,2.45
2023-05-10T11:15:36.631Z,2.45
2023-05-10T11:20:41.711Z,3.22
2023-05-10T11:25:45.354Z,2.08
2023-05-10T11:30:47.178Z,2.90
2023-05-10T11:35:48.868Z,2.53
2023-05-10T11:40:52.868Z,3.10
2023-05-10T11:45:55.816Z,2.45
2023-05-10T11:50:58.936Z,2.40
2023-05-10T11:56:05.185Z,2.78
2023-05-10T12:01:08.656Z,2.38
2023-05-10T12:06:10.425Z,2.20
2023-05-10T12:11:14.735Z,2.22
2023-05-10T12:16:26.273Z,3.08
2023-05-10T12:21:30.125Z,2.25
2023-05-10T12:26:32.289Z,2.55
2023-05-10T12:31:33.996Z,2.35
2023-05-10T12:36:39.671Z,2.63
2023-05-10T12:41:43.463Z,2.70
2023-05-10T12:46:45.390Z,2.83
2023-05-10T12:51:47.085Z,2.85
2023-05-10T12:56:48.714Z,2.45
2023-05-10T13:01:50.335Z,3.10
2023-05-10T13:06:52.086Z,3.33
2023-05-10T13:11:55.316Z,2.70
2023-05-10T13:16:57.098Z,1.67
2023-05-10T13:21:59.092Z,2.10
2023-05-10T13:27:00.957Z,2.28
2023-05-10T13:32:02.769Z,2.42
2023-05-10T13:37:04.368Z,2.63
2023-05-10T13:42:06.119Z,3.10
2023-05-10T13:47:07.810Z,2.50
2023-05-10T13:52:11.128Z,2.15
2023-05-10T13:57:14.903Z,2.30
2023-05-10T14:02:16.655Z,2.58
2023-05-10T14:07:18.949Z,2.60
2023-05-10T14:12:20.544Z,2.70
2023-05-10T14:17:23.223Z,3.15
2023-05-10T14:22:24.991Z,3.17
2023-05-10T14:27:26.632Z,2.80
2023-05-10T14:32:28.961Z,3.13
2023-05-10T14:37:30.625Z,2.80
2023-05-10T14:42:32.340Z,2.47
2023-05-10T14:47:34.178Z,2.63
2023-05-10T14:52:35.992Z,2.20
2023-05-10T14:57:37.644Z,1.60
2023-05-10T15:02:39.411Z,2.00
2023-05-10T15:07:41.403Z,2.17
2023-05-10T15:12:43.080Z,2.55
2023-05-10T15:17:44.890Z,1.90
2023-05-10T15:22:46.596Z,2.00
2023-05-10T15:27:48.251Z,2.05
2023-05-10T15:32:49.897Z,1.90
2023-05-10T15:37:51.599Z,2.45
2023-05-10T15:42:53.200Z,3.15
2023-05-10T15:47:54.829Z,2.90
2023-05-10T15:52:56.416Z,3.28
2023-05-10T15:57:58.018Z,2.20
2023-05-10T16:02:59.981Z,3.00
2023-05-10T16:08:02.388Z,2.20
2023-05-10T16:13:04.137Z,2.53
2023-05-10T16:18:06.104Z,2.78
2023-05-10T16:23:08.102Z,2.85
2023-05-10T16:28:09.805Z,2.75
2023-05-10T16:33:11.478Z,2.63
2023-05-10T16:38:13.215Z,2.42
2023-05-10T16:43:14.814Z,2.40
2023-05-10T16:48:16.812Z,3.13
2023-05-10T16:53:18.414Z,3.22
2023-05-10T16:58:20.006Z,2.92
2023-05-10T17:03:22.308Z,3.35
2023-05-10T17:08:23.978Z,3.65
2023-05-10T17:13:25.586Z,2.85
2023-05-10T17:18:27.318Z,2.90
2023-05-10T17:23:30.236Z,2.80
2023-05-10T17:28:32.517Z,2.65
2023-05-10T17:33:34.179Z,2.35
2023-05-10T17:38:36.639Z,2.85
2023-05-10T17:43:38.250Z,2.80
2023-05-10T17:48:39.913Z,2.67
2023-05-10T17:53:41.807Z,2.13
2023-05-10T17:58:43.699Z,2.70
2023-05-10T18:03:46.331Z,2.60
2023-05-10T18:08:48.171Z,2.13
2023-05-10T18:13:49.823Z,2.45
2023-05-10T18:18:51.494Z,2.10
2023-05-10T18:23:53.252Z,2.00
2023-05-10T18:28:54.854Z,1.90
2023-05-10T18:33:56.508Z,1.67
2023-05-10T18:38:58.177Z,1.52
2023-05-10T18:43:59.799Z,1.83
2023-05-10T18:49:02.668Z,1.58
2023-05-10T18:54:04.543Z,2.00
2023-05-10T18:59:06.349Z,1.50
2023-05-10T19:04:10.844Z,1.77
2023-05-10T19:09:12.549Z,1.60
2023-05-10T19:14:14.267Z,1.73
2023-05-10T19:19:16.199Z,1.67
2023-05-10T19:24:19.612Z,1.73
2023-05-10T19:29:21.262Z,1.55
2023-05-10T19:34:22.950Z,1.50
2023-05-10T19:39:24.604Z,1.95
2023-05-10T19:44:26.589Z,1.70
2023-05-10T19:49:28.234Z,1.80
2023-05-10T19:54:29.941Z,1.75
2023-05-10T19:59:31.585Z,1.90
2023-05-10T20:04:33.974Z,1.90
2023-05-10T20:09:35.602Z,2.05
2023-05-10T20:14:37.248Z,2.10
2023-05-10T20:19:38.843Z,1.70
2023-05-10T20:24:40.443Z,2.30
2023-05-10T20:29:42.138Z,1.70
2023-05-10T20:34:44.210Z,2.42
2023-05-10T20:39:46.381Z,2.22
2023-05-10T20:44:50.007Z,2.28
2023-05-10T20:49:51.668Z,2.83
2023-05-10T20:54:53.290Z,2.60
2023-05-10T20:59:54.995Z,2.58
2023-05-10T21:04:57.946Z,2.85
2023-05-10T21:09:59.910Z,2.92
2023-05-10T21:15:01.564Z,2.67
2023-05-10T21:20:03.766Z,3.42
2023-05-10T21:25:05.885Z,2.70
2023-05-10T21:30:08.171Z,3.10
2023-05-10T21:35:10.039Z,3.35
2023-05-10T21:40:12.897Z,3.03
2023-05-10T21:45:18.041Z,2.95
2023-05-10T21:50:19.903Z,3.50
2023-05-10T21:55:22.546Z,3.33
2023-05-10T22:00:24.186Z,2.92
2023-05-10T22:05:25.786Z,2.85
2023-05-10T22:10:27.469Z,3.38
2023-05-10T22:15:29.165Z,3.33
2023-05-10T22:20:30.867Z,3.78
2023-05-10T22:25:32.492Z,3.97
2023-05-10T22:30:34.104Z,3.15
2023-05-10T22:35:35.960Z,3.22
2023-05-10T22:40:37.559Z,3.53
2023-05-10T22:45:39.410Z,3.55
2023-05-10T22:50:41.132Z,3.35
2023-05-10T22:55:42.771Z,3.17
2023-05-10T23:00:44.506Z,3.03
2023-05-10T23:05:46.293Z,3.30
2023-05-10T23:10:48.087Z,3.13
2023-05-10T23:15:49.767Z,3.63
2023-05-10T23:20:52.926Z,3.20
2023-05-10T23:25:54.571Z,3.42
2023-05-10T23:30:57.512Z,3.50
2023-05-10T23:35:59.174Z,3.97
2023-05-10T23:41:01.053Z,3.50
2023-05-10T23:46:05.316Z,3.67
2023-05-10T23:51:07.015Z,3.22
2023-05-10T23:56:08.639Z,3.85
